Terminal Aerodrome Forecast
Issued by NWS

Home | Current Version | Previous Version | Text Only | Print | Product List | Glossary On
Versions: 1 2 3 4 5 6 7 8 9 10 11 12 13 14 15 16 17 18 19 20 21 22
000
FTUS41 KCAR 260856 AAC
TAFHUL
TAF AMD
KHUL 260856Z 2609/2706 27009G20KT P6SM BKN050
     FM261000 27005KT P6SM BKN250
     FM261900 34004KT P6SM SCT025 OVC050
     FM262100 01006KT 3SM -SN SCT015 OVC025
     FM262200 02007KT 1SM -SN VV008=

USA.gov is the U.S. government's official web portal to all federal, state and local government web resources and services.